Time;durP1;ratioP1;P1;durP2;ratioP2;P2;SDS_P1;SDS_P2;PMS_P1;PMS_P2;Temp;Humidity;BMP_temperature;BMP_pressure;BME280_temperature;BME280_humidity;BME280_pressure;Samples;Min_cycle;Max_cycle;Signal;HPM_P1;HPM_P2
2022/08/02 00:01:44;;;;;;;;;;;;;;;18.62;78.24;100687.77;1648877;86;21162;-82
2022/08/02 00:04:10;;;;;;;;;;;;;;;18.60;78.24;100687.16;1709579;83;20214;-82
2022/08/02 00:06:36;;;;;;;;;;;;;;;18.57;78.20;100690.30;1711143;83;20281;-82
2022/08/02 00:09:02;;;;;;;;;;;;;;;18.52;78.18;100695.50;1711139;83;20161;-82
2022/08/02 00:11:28;;;;;;;;;;;;;;;18.46;78.18;100697.17;1719209;83;20207;-82
2022/08/02 00:13:54;;;;;;;;;;;;;;;18.41;78.19;100695.10;1719044;83;21190;-82
2022/08/02 00:16:20;;;;;;;;;;;;;;;18.34;78.23;100699.70;1719417;83;20207;-82
2022/08/02 00:18:46;;;;;;;;;;;;;;;18.30;78.25;100705.72;1719273;83;20227;-82
2022/08/02 00:21:12;;;;;;;;;;;;;;;18.25;78.25;100703.69;1719067;83;20814;-82
2022/08/02 00:23:37;;;;;;;;;;;;;;;18.21;78.28;100701.09;1719285;83;20207;-82
2022/08/02 00:26:03;;;;;;;;;;;;;;;18.18;78.30;100708.28;1716408;83;21815;-82
2022/08/02 00:28:29;;;;;;;;;;;;;;;18.15;78.30;100707.35;1717041;83;20187;-81
2022/08/02 00:30:56;;;;;;;;;;;;;;;18.12;78.36;100709.09;1719420;83;20183;-81
2022/08/02 00:33:22;;;;;;;;;;;;;;;18.08;78.37;100714.64;1714653;83;20212;-82
2022/08/02 00:35:48;;;;;;;;;;;;;;;18.06;78.41;100714.00;1701570;83;20237;-82
2022/08/02 00:38:13;;;;;;;;;;;;;;;18.07;78.45;100718.37;1710670;83;21220;-82
2022/08/02 00:40:40;;;;;;;;;;;;;;;18.07;78.47;100712.97;1712426;83;20226;-82
2022/08/02 00:43:08;;;;;;;;;;;;;;;18.09;78.51;100717.63;1705599;83;20187;-82
2022/08/02 00:45:36;;;;;;;;;;;;;;;18.11;78.53;100721.48;1717571;83;20165;-82
2022/08/02 00:48:01;;;;;;;;;;;;;;;18.14;78.56;100719.19;1719221;83;20145;-82
2022/08/02 00:50:27;;;;;;;;;;;;;;;18.15;78.58;100718.66;1719432;83;21209;-82
2022/08/02 00:52:53;;;;;;;;;;;;;;;18.18;78.60;100723.64;1719150;83;20251;-82
2022/08/02 00:55:19;;;;;;;;;;;;;;;18.20;78.60;100723.73;1717637;83;20276;-82
2022/08/02 00:57:45;;;;;;;;;;;;;;;18.21;78.62;100722.70;1708566;83;20465;-82
2022/08/02 01:00:12;;;;;;;;;;;;;;;18.23;78.62;100721.95;1681517;83;20224;-82
2022/08/02 01:02:37;;;;;;;;;;;;;;;18.26;78.64;100723.42;1694786;84;22129;-82
2022/08/02 01:05:04;;;;;;;;;;;;;;;18.25;78.64;100728.50;1667877;83;20214;-82
2022/08/02 01:07:30;;;;;;;;;;;;;;;18.25;78.66;100729.34;1682959;83;20163;-81
2022/08/02 01:09:56;;;;;;;;;;;;;;;18.22;78.67;100729.77;1700752;83;20145;-82
2022/08/02 01:12:21;;;;;;;;;;;;;;;18.19;78.67;100724.76;1688123;84;20786;-82
2022/08/02 01:14:49;;;;;;;;;;;;;;;18.17;78.71;100725.50;1688539;84;21178;-82
2022/08/02 01:17:19;;;;;;;;;;;;;;;18.14;78.72;100729.98;1680801;85;20171;-81
2022/08/02 01:20:15;;;;;;;;;;;;;;;18.11;78.71;100729.06;1703988;84;20190;-82
2022/08/02 01:23:00;;;;;;;;;;;;;;;18.08;78.73;100725.44;1687202;83;20196;-82
2022/08/02 01:25:38;;;;;;;;;;;;;;;18.05;78.74;100727.72;1680866;85;20152;-82
2022/08/02 01:28:28;;;;;;;;;;;;;;;17.98;78.77;100721.80;1676883;83;21244;-82
2022/08/02 01:31:00;;;;;;;;;;;;;;;17.97;78.80;100719.33;1671953;83;20468;-82
2022/08/02 01:33:29;;;;;;;;;;;;;;;17.96;78.80;100723.05;1647780;87;20175;-82
2022/08/02 01:35:55;;;;;;;;;;;;;;;17.92;78.83;100721.81;1642760;85;20491;-82
2022/08/02 01:38:28;;;;;;;;;;;;;;;17.88;78.86;100719.22;1669402;85;20257;-82
2022/08/02 01:40:54;;;;;;;;;;;;;;;17.83;78.86;100717.69;1676514;85;21791;-82
2022/08/02 01:43:20;;;;;;;;;;;;;;;17.79;78.90;100709.17;1647759;85;20462;-82
2022/08/02 01:45:46;;;;;;;;;;;;;;;17.75;78.92;100711.14;1623580;86;20169;-82
2022/08/02 01:48:12;;;;;;;;;;;;;;;17.70;78.95;100708.23;1621811;86;20213;-83
2022/08/02 01:50:38;;;;;;;;;;;;;;;17.67;79.00;100712.70;1578768;88;20230;-82
2022/08/02 01:53:05;;;;;;;;;;;;;;;17.62;79.02;100714.69;1626046;86;21181;-82
2022/08/02 01:55:40;;;;;;;;;;;;;;;17.57;79.06;100712.29;1687168;83;20136;-82
2022/08/02 01:58:06;;;;;;;;;;;;;;;17.52;79.09;100722.85;1679112;83;20499;-82
2022/08/02 02:00:34;;;;;;;;;;;;;;;17.47;79.13;100718.91;1638344;85;20195;-82
2022/08/02 02:03:00;;;;;;;;;;;;;;;17.45;79.17;100714.22;1675659;85;20187;-82
2022/08/02 02:05:27;;;;;;;;;;;;;;;17.42;79.21;100720.03;1656679;85;21185;-82
2022/08/02 02:07:56;;;;;;;;;;;;;;;17.40;79.27;100722.12;1653718;85;20524;-82
2022/08/02 02:10:25;;;;;;;;;;;;;;;17.38;79.31;100721.47;1714937;83;20164;-82
2022/08/02 02:12:51;;;;;;;;;;;;;;;17.36;79.35;100728.12;1687996;83;20155;-82
2022/08/02 02:15:17;;;;;;;;;;;;;;;17.32;79.34;100729.05;1685717;83;20148;-82
2022/08/02 02:17:45;;;;;;;;;;;;;;;17.26;79.41;100719.09;1687800;83;21027;-82
2022/08/02 02:20:18;;;;;;;;;;;;;;;17.23;79.43;100719.51;1684949;83;20473;-82
2022/08/02 02:22:44;;;;;;;;;;;;;;;17.21;79.49;100721.56;1656318;85;20216;-82
2022/08/02 02:25:10;;;;;;;;;;;;;;;17.17;79.54;100722.20;1643673;86;20218;-82
2022/08/02 02:27:36;;;;;;;;;;;;;;;17.13;79.56;100729.86;1651975;85;20159;-82
2022/08/02 02:30:04;;;;;;;;;;;;;;;17.11;79.63;100730.56;1674165;83;21833;-82
2022/08/02 02:32:29;;;;;;;;;;;;;;;17.10;79.67;100722.16;1690236;83;20166;-82
2022/08/02 02:34:55;;;;;;;;;;;;;;;17.08;79.67;100726.94;1660862;85;20236;-82
2022/08/02 02:37:22;;;;;;;;;;;;;;;17.05;79.70;100732.73;1678765;83;20210;-82
2022/08/02 02:39:48;;;;;;;;;;;;;;;17.00;79.72;100735.20;1648568;85;20745;-81
2022/08/02 02:42:15;;;;;;;;;;;;;;;16.94;79.78;100737.37;1663304;85;21167;-82
2022/08/02 02:44:42;;;;;;;;;;;;;;;16.91;79.82;100739.13;1641783;85;20170;-82
2022/08/02 02:47:08;;;;;;;;;;;;;;;16.88;79.85;100739.53;1648478;85;20190;-82
2022/08/02 02:49:34;;;;;;;;;;;;;;;16.84;79.89;100736.92;1636989;86;20164;-82
2022/08/02 02:52:00;;;;;;;;;;;;;;;16.81;79.92;100738.68;1643500;85;20262;-82
2022/08/02 02:54:26;;;;;;;;;;;;;;;16.80;79.97;100740.53;1636928;86;21814;-82
2022/08/02 02:56:52;;;;;;;;;;;;;;;16.77;80.01;100742.80;1642395;85;20298;-82
2022/08/02 02:59:18;;;;;;;;;;;;;;;16.74;80.07;100745.91;1640404;86;20214;-81
2022/08/02 03:01:44;;;;;;;;;;;;;;;16.71;80.08;100751.70;1648907;85;20244;-82
2022/08/02 03:04:10;;;;;;;;;;;;;;;16.65;80.12;100745.75;1698330;84;20785;-82
2022/08/02 03:06:36;;;;;;;;;;;;;;;16.62;80.15;100749.68;1694044;83;21855;-82
2022/08/02 03:09:03;;;;;;;;;;;;;;;16.59;80.20;100746.05;1706666;83;20424;-82
2022/08/02 03:11:29;;;;;;;;;;;;;;;16.56;80.22;100757.73;1683674;83;20525;-82
2022/08/02 03:13:57;;;;;;;;;;;;;;;16.52;80.29;100766.69;1705220;83;20175;-81
2022/08/02 03:16:24;;;;;;;;;;;;;;;16.47;80.33;100769.14;1696871;83;20220;-82
2022/08/02 03:18:50;;;;;;;;;;;;;;;16.42;80.37;100764.88;1699677;83;21873;-81
2022/08/02 03:21:15;;;;;;;;;;;;;;;16.34;80.43;100769.91;1706572;83;20221;-81
2022/08/02 03:23:41;;;;;;;;;;;;;;;16.25;80.50;100777.84;1690751;83;20217;-82
2022/08/02 03:26:07;;;;;;;;;;;;;;;16.15;80.56;100777.88;1690767;83;20173;-81
2022/08/02 03:28:33;;;;;;;;;;;;;;;16.07;80.61;100781.54;1698600;83;20247;-81
2022/08/02 03:31:00;;;;;;;;;;;;;;;16.01;80.68;100782.30;1695005;83;21815;-81
2022/08/02 03:33:26;;;;;;;;;;;;;;;15.95;80.77;100792.50;1650441;85;20169;-82
2022/08/02 03:35:55;;;;;;;;;;;;;;;15.92;80.81;100796.42;1633111;86;20234;-81
2022/08/02 03:38:22;;;;;;;;;;;;;;;15.91;80.87;100787.19;1674075;85;20168;-82
2022/08/02 03:40:48;;;;;;;;;;;;;;;15.90;80.92;100790.93;1700604;83;20191;-81
2022/08/02 03:43:14;;;;;;;;;;;;;;;15.87;80.97;100792.64;1709004;83;22188;-82
2022/08/02 03:45:42;;;;;;;;;;;;;;;15.82;81.02;100802.66;1703145;83;20277;-81
2022/08/02 03:48:08;;;;;;;;;;;;;;;15.80;81.08;100798.47;1706814;83;20177;-81
2022/08/02 03:50:34;;;;;;;;;;;;;;;15.78;81.11;100805.92;1706523;83;20767;-82
2022/08/02 03:53:00;;;;;;;;;;;;;;;15.75;81.15;100809.84;1712966;83;20184;-82
2022/08/02 03:55:25;;;;;;;;;;;;;;;15.73;81.19;100811.03;1663859;83;21179;-82
2022/08/02 03:57:51;;;;;;;;;;;;;;;15.73;81.24;100817.25;1712674;83;20187;-81
2022/08/02 04:00:18;;;;;;;;;;;;;;;15.75;81.32;100818.41;1695793;83;20295;-82
2022/08/02 04:02:44;;;;;;;;;;;;;;;15.75;81.36;100819.76;1713179;83;20465;-82
2022/08/02 04:05:10;;;;;;;;;;;;;;;15.71;81.39;100824.69;1690310;83;20194;-82
2022/08/02 04:07:36;;;;;;;;;;;;;;;15.71;81.45;100825.20;1675713;83;21182;-82
2022/08/02 04:10:02;;;;;;;;;;;;;;;15.71;81.49;100831.92;1709502;83;20222;-82
2022/08/02 04:12:28;;;;;;;;;;;;;;;15.75;81.55;100833.20;1695896;83;20166;-82
2022/08/02 04:14:54;;;;;;;;;;;;;;;15.80;81.60;100834.78;1692345;83;20745;-82
2022/08/02 04:17:20;;;;;;;;;;;;;;;16.06;81.77;100839.06;1662744;85;20236;-82
2022/08/02 04:19:54;;;;;;;;;;;;;;;17.17;82.43;100836.20;1658165;85;21092;-82
2022/08/02 04:22:26;;;;;;;;;;;;;;;18.44;82.26;100837.81;1624608;86;20175;-82
2022/08/02 04:24:54;;;;;;;;;;;;;;;19.12;81.34;100840.14;1647991;85;20173;-82
2022/08/02 04:27:20;;;;;;;;;;;;;;;20.03;81.37;100849.59;1652689;87;20158;-82
2022/08/02 04:29:46;;;;;;;;;;;;;;;20.80;80.83;100850.96;1662418;85;20820;-83
2022/08/02 04:32:12;;;;;;;;;;;;;;;21.54;80.12;100851.20;1598705;87;22012;-83
2022/08/02 04:34:38;;;;;;;;;;;;;;;21.89;79.25;100856.20;1650761;86;20232;-83
2022/08/02 04:37:04;;;;;;;;;;;;;;;22.18;78.74;100853.16;1678954;83;20291;-83
2022/08/02 04:39:30;;;;;;;;;;;;;;;22.59;78.13;100859.04;1689118;83;20366;-83
2022/08/02 04:41:55;;;;;;;;;;;;;;;23.09;77.33;100854.71;1656975;85;20382;-83
2022/08/02 04:44:21;;;;;;;;;;;;;;;23.32;76.49;100856.02;1688080;85;21812;-83
2022/08/02 04:46:47;;;;;;;;;;;;;;;23.63;75.90;100858.80;1710284;83;20211;-83
2022/08/02 04:49:13;;;;;;;;;;;;;;;24.10;75.18;100859.91;1712751;83;20203;-83
2022/08/02 04:51:40;;;;;;;;;;;;;;;24.46;74.25;100865.39;1706200;83;20759;-83
2022/08/02 04:54:06;;;;;;;;;;;;;;;24.34;72.52;100860.87;1691670;83;20174;-83
2022/08/02 04:56:32;;;;;;;;;;;;;;;23.93;71.81;100868.05;1705053;83;22474;-83
2022/08/02 04:58:58;;;;;;;;;;;;;;;23.30;71.96;100870.91;1683029;83;20195;-83
2022/08/02 05:01:24;;;;;;;;;;;;;;;22.76;72.24;100873.59;1706028;83;20230;-83
2022/08/02 05:03:50;;;;;;;;;;;;;;;22.39;72.58;100868.36;1692356;83;21325;-83
2022/08/02 05:06:18;;;;;;;;;;;;;;;22.01;72.55;100876.12;1690036;83;20257;-82
2022/08/02 05:08:43;;;;;;;;;;;;;;;21.81;72.66;100870.14;1707112;84;21699;-82
2022/08/02 05:11:09;;;;;;;;;;;;;;;21.77;72.57;100874.37;1689380;83;20269;-83
2022/08/02 05:13:35;;;;;;;;;;;;;;;21.77;72.43;100871.66;1679650;83;20290;-83
2022/08/02 05:16:02;;;;;;;;;;;;;;;21.77;72.33;100875.73;1669825;85;21169;-83
2022/08/02 05:18:28;;;;;;;;;;;;;;;21.92;72.23;100877.49;1675015;85;20176;-83
2022/08/02 05:20:54;;;;;;;;;;;;;;;22.11;72.11;100883.16;1693132;83;21816;-83
2022/08/02 05:23:19;;;;;;;;;;;;;;;22.33;71.96;100878.83;1702951;83;20214;-83
2022/08/02 05:25:45;;;;;;;;;;;;;;;22.58;71.71;100881.84;1696497;83;20193;-83
2022/08/02 05:28:11;;;;;;;;;;;;;;;22.61;71.51;100882.20;1649746;85;21250;-83
2022/08/02 05:30:37;;;;;;;;;;;;;;;22.62;71.34;100877.06;1685943;83;20424;-83
2022/08/02 05:33:03;;;;;;;;;;;;;;;22.64;71.03;100877.64;1702609;84;21789;-83
2022/08/02 05:35:29;;;;;;;;;;;;;;;22.61;70.65;100877.29;1711938;84;20186;-83
2022/08/02 05:37:55;;;;;;;;;;;;;;;22.58;70.48;100876.41;1692886;83;20273;-83
2022/08/02 05:40:20;;;;;;;;;;;;;;;22.62;70.19;100873.52;1702778;83;20417;-83
2022/08/02 05:42:46;;;;;;;;;;;;;;;22.57;69.73;100877.47;1701914;84;20740;-83
2022/08/02 05:45:12;;;;;;;;;;;;;;;22.55;69.31;100876.88;1690792;83;21770;-83
2022/08/02 05:47:38;;;;;;;;;;;;;;;22.62;68.93;100881.14;1700413;84;20187;-83
2022/08/02 05:50:05;;;;;;;;;;;;;;;22.86;68.66;100879.25;1688414;83;20194;-83
2022/08/02 05:52:38;;;;;;;;;;;;;;;22.97;68.31;100877.58;1696885;84;20601;-83
2022/08/02 05:55:09;;;;;;;;;;;;;;;22.99;67.99;100878.98;1710947;83;20182;-83
2022/08/02 05:57:58;;;;;;;;;;;;;;;23.08;67.72;100878.89;1699801;83;21954;-83
2022/08/02 06:00:25;;;;;;;;;;;;;;;23.13;67.17;100883.09;1698471;82;20785;-83
2022/08/02 06:03:17;;;;;;;;;;;;;;;23.11;66.88;100882.52;1690406;84;20193;-83
2022/08/02 06:06:01;;;;;;;;;;;;;;;23.17;66.50;100888.89;1702005;84;20482;-83
2022/08/02 06:08:31;;;;;;;;;;;;;;;23.10;66.03;100891.75;1656340;85;20169;-83
2022/08/02 06:10:57;;;;;;;;;;;;;;;23.05;65.58;100890.27;1652079;86;22297;-83
2022/08/02 06:13:22;;;;;;;;;;;;;;;23.23;65.39;100889.28;1653241;86;20909;-82
2022/08/02 06:15:49;;;;;;;;;;;;;;;23.44;64.99;100890.55;1641026;86;20218;-83
2022/08/02 06:18:15;;;;;;;;;;;;;;;23.30;64.55;100886.72;1688204;84;20451;-82
2022/08/02 06:20:41;;;;;;;;;;;;;;;23.26;64.24;100893.70;1685855;83;20170;-82
2022/08/02 06:23:07;;;;;;;;;;;;;;;23.32;63.87;100895.48;1680684;85;21878;-83
2022/08/02 06:25:34;;;;;;;;;;;;;;;23.29;63.42;100890.50;1647225;86;20106;-83
2022/08/02 06:28:01;;;;;;;;;;;;;;;23.27;63.07;100892.64;1647907;85;20186;-83
2022/08/02 06:30:27;;;;;;;;;;;;;;;23.45;62.65;100889.48;1685071;83;21346;-83
2022/08/02 06:32:53;;;;;;;;;;;;;;;23.47;62.25;100894.17;1671244;85;20258;-83
2022/08/02 06:35:19;;;;;;;;;;;;;;;23.34;61.78;100890.61;1699072;83;21486;-83
2022/08/02 06:37:50;;;;;;;;;;;;;;;23.40;61.50;100876.55;1694448;83;20166;-83
2022/08/02 06:40:36;;;;;;;;;;;;;;;23.26;61.15;100866.48;1668785;83;20151;-83
2022/08/02 06:43:30;;;;;;;;;;;;;;;23.37;60.90;100879.23;1679517;83;20424;-82
2022/08/02 06:45:56;;;;;;;;;;;;;;;23.43;60.51;100884.30;1699376;83;20160;-83
2022/08/02 06:48:22;;;;;;;;;;;;;;;23.73;60.25;100889.48;1657768;85;21917;-83
2022/08/02 06:50:47;;;;;;;;;;;;;;;23.69;59.76;100886.95;1639984;86;20827;-83
2022/08/02 06:53:13;;;;;;;;;;;;;;;23.81;59.51;100885.01;1706760;83;20269;-83
2022/08/02 06:55:39;;;;;;;;;;;;;;;23.89;59.21;100890.03;1687648;83;20379;-83
2022/08/02 06:58:05;;;;;;;;;;;;;;;24.10;58.93;100893.41;1707116;83;20149;-83
2022/08/02 07:00:31;;;;;;;;;;;;;;;24.09;58.54;100890.41;1693694;83;21783;-83
2022/08/02 07:02:57;;;;;;;;;;;;;;;24.00;58.25;100891.88;1667048;84;20266;-83
2022/08/02 07:05:22;;;;;;;;;;;;;;;24.13;58.15;100887.52;1633706;87;20276;-83
2022/08/02 07:07:48;;;;;;;;;;;;;;;24.38;57.85;100894.72;1638755;85;20428;-83
2022/08/02 07:10:14;;;;;;;;;;;;;;;24.31;57.41;100899.52;1615613;87;20205;-83
2022/08/02 07:12:41;;;;;;;;;;;;;;;24.22;57.14;100894.20;1655345;86;21805;-83
2022/08/02 07:15:07;;;;;;;;;;;;;;;24.44;56.98;100890.73;1640685;85;20212;-83
2022/08/02 07:17:33;;;;;;;;;;;;;;;24.47;56.59;100891.59;1642495;85;20471;-83
2022/08/02 07:19:59;;;;;;;;;;;;;;;24.57;56.45;100886.28;1617299;87;20380;-83
2022/08/02 07:22:25;;;;;;;;;;;;;;;24.67;56.20;100889.16;1657378;85;20811;-83
2022/08/02 07:24:51;;;;;;;;;;;;;;;24.80;55.99;100888.83;1682268;83;21724;-84
2022/08/02 07:27:19;;;;;;;;;;;;;;;25.03;55.80;100880.42;1707851;83;21041;-83
2022/08/02 07:29:44;;;;;;;;;;;;;;;25.11;55.53;100882.73;1654449;85;20130;-83
2022/08/02 07:32:10;;;;;;;;;;;;;;;25.17;55.24;100878.97;1654594;85;20791;-84
2022/08/02 07:34:36;;;;;;;;;;;;;;;25.23;54.98;100884.77;1628712;87;20185;-85
2022/08/02 07:37:02;;;;;;;;;;;;;;;25.22;54.71;100883.14;1648045;85;21887;-84
2022/08/02 07:39:28;;;;;;;;;;;;;;;25.32;54.43;100879.16;1629595;86;20115;-84
2022/08/02 07:41:54;;;;;;;;;;;;;;;25.30;54.17;100879.94;1630286;86;20296;-84
2022/08/02 07:44:20;;;;;;;;;;;;;;;25.38;53.94;100877.84;1631227;87;20644;-84
2022/08/02 07:46:46;;;;;;;;;;;;;;;25.22;53.54;100875.48;1641980;85;20502;-84
2022/08/02 07:49:17;;;;;;;;;;;;;;;25.14;53.35;100879.48;1642059;85;21877;-83
2022/08/02 07:51:40;;;;;;;;;;;;;;;25.24;53.23;100882.33;1633885;86;20723;-82
2022/08/02 07:54:06;;;;;;;;;;;;;;;25.30;53.08;100875.02;1650057;86;20274;-82
2022/08/02 07:56:32;;;;;;;;;;;;;;;25.30;52.85;100882.67;1653730;86;20382;-82
2022/08/02 07:58:58;;;;;;;;;;;;;;;25.13;52.45;100881.09;1633697;85;20777;-82
2022/08/02 08:01:23;;;;;;;;;;;;;;;25.16;52.45;100880.04;1639841;86;23287;-82
2022/08/02 08:03:49;;;;;;;;;;;;;;;25.16;52.32;100884.67;1645140;85;20256;-82
2022/08/02 08:06:15;;;;;;;;;;;;;;;25.24;52.28;100891.89;1656465;85;20836;-82
2022/08/02 08:08:42;;;;;;;;;;;;;;;25.41;52.20;100888.25;1700914;83;20488;-82
2022/08/02 08:11:08;;;;;;;;;;;;;;;25.38;52.10;100883.30;1654756;85;20513;-82
2022/08/02 08:13:34;;;;;;;;;;;;;;;25.39;51.85;100890.42;1653879;85;21791;-82
2022/08/02 08:16:01;;;;;;;;;;;;;;;25.33;51.79;100890.35;1643001;85;20279;-82
2022/08/02 08:18:27;;;;;;;;;;;;;;;25.41;51.81;100892.34;1655434;85;20167;-81
2022/08/02 08:20:52;;;;;;;;;;;;;;;25.48;51.81;100891.61;1653630;85;20682;-82
2022/08/02 08:23:18;;;;;;;;;;;;;;;25.57;51.67;100896.95;1628668;87;20194;-81
2022/08/02 08:25:44;;;;;;;;;;;;;;;25.54;51.49;100899.66;1657992;85;21851;-81
2022/08/02 08:28:10;;;;;;;;;;;;;;;25.46;51.27;100896.52;1650914;85;20186;-81
2022/08/02 08:30:36;;;;;;;;;;;;;;;25.61;51.34;100895.36;1648240;85;20726;-76
2022/08/02 08:33:01;;;;;;;;;;;;;;;25.63;50.82;100904.11;1670890;85;20451;-77
2022/08/02 08:35:27;;;;;;;;;;;;;;;25.47;50.70;100896.81;1655969;85;20183;-77
2022/08/02 08:37:54;;;;;;;;;;;;;;;25.43;50.55;100896.50;1654093;85;21816;-77
2022/08/02 08:40:19;;;;;;;;;;;;;;;25.48;50.69;100898.44;1660387;85;20103;-77
2022/08/02 08:42:45;;;;;;;;;;;;;;;25.61;50.43;100900.83;1650346;85;20148;-77
2022/08/02 08:45:11;;;;;;;;;;;;;;;25.63;50.25;100897.28;1657513;86;21250;-77
2022/08/02 08:47:38;;;;;;;;;;;;;;;25.60;50.10;100901.90;1694904;83;20247;-77
2022/08/02 08:50:06;;;;;;;;;;;;;;;25.71;50.01;100906.39;1642800;85;22425;-76
2022/08/02 08:52:35;;;;;;;;;;;;;;;25.77;49.87;100908.09;1634048;85;20121;-76
2022/08/02 08:55:04;;;;;;;;;;;;;;;25.82;49.85;100908.16;1618956;86;20451;-76
2022/08/02 08:57:30;;;;;;;;;;;;;;;25.97;49.85;100906.92;1642633;85;20443;-75
2022/08/02 08:59:56;;;;;;;;;;;;;;;26.03;49.55;100904.53;1642274;85;20133;-75
2022/08/02 09:02:22;;;;;;;;;;;;;;;25.85;49.53;100907.64;1645850;85;21852;-76
2022/08/02 09:04:48;;;;;;;;;;;;;;;25.84;49.00;100908.70;1639932;85;20117;-76
2022/08/02 09:07:14;;;;;;;;;;;;;;;25.82;49.00;100905.42;1639686;85;20130;-76
2022/08/02 09:09:40;;;;;;;;;;;;;;;25.83;49.05;100908.42;1665207;85;20465;-76
2022/08/02 09:12:13;;;;;;;;;;;;;;;25.94;49.06;100906.07;1617490;87;20936;-76
2022/08/02 09:14:39;;;;;;;;;;;;;;;26.20;49.19;100904.44;1617188;87;21838;-76
2022/08/02 09:17:10;;;;;;;;;;;;;;;26.33;49.06;100900.72;1640511;86;20333;-75
2022/08/02 09:19:36;;;;;;;;;;;;;;;26.25;48.89;100903.92;1651234;85;20192;-75
2022/08/02 09:22:04;;;;;;;;;;;;;;;26.26;48.79;100901.48;1637438;86;20968;-75
2022/08/02 09:24:33;;;;;;;;;;;;;;;26.29;48.67;100907.79;1646995;86;20186;-75
2022/08/02 09:26:59;;;;;;;;;;;;;;;26.32;48.43;100903.16;1608628;86;22614;-75
2022/08/02 09:29:25;;;;;;;;;;;;;;;26.05;48.32;100902.36;1608842;86;20190;-75
2022/08/02 09:31:51;;;;;;;;;;;;;;;26.09;48.53;100908.95;1642034;86;20705;-76
2022/08/02 09:34:17;;;;;;;;;;;;;;;26.26;48.32;100904.21;1641617;86;20422;-76
2022/08/02 09:36:44;;;;;;;;;;;;;;;25.94;48.12;100904.70;1609676;87;20246;-75
2022/08/02 09:39:11;;;;;;;;;;;;;;;25.72;48.08;100902.59;1653370;85;21847;-75
2022/08/02 09:41:40;;;;;;;;;;;;;;;25.57;48.04;100907.87;1645565;85;20205;-74
2022/08/02 09:44:08;;;;;;;;;;;;;;;25.40;48.03;100901.64;1631508;86;20413;-75
2022/08/02 09:46:38;;;;;;;;;;;;;;;25.25;48.10;100903.11;1646407;85;20272;-74
2022/08/02 09:49:10;;;;;;;;;;;;;;;25.21;48.21;100907.42;1617800;87;20433;-74
2022/08/02 09:51:41;;;;;;;;;;;;;;;25.10;47.87;100905.64;1624498;86;21849;-75
2022/08/02 09:54:10;;;;;;;;;;;;;;;25.41;48.10;100899.17;1620124;86;20162;-76
2022/08/02 09:56:45;;;;;;;;;;;;;;;25.64;47.96;100907.14;1617931;87;20119;-81
2022/08/02 09:59:12;;;;;;;;;;;;;;;25.73;47.76;100905.05;1641636;85;21205;-81
2022/08/02 10:01:38;;;;;;;;;;;;;;;25.83;47.77;100892.84;1609609;87;21331;-81
2022/08/02 10:04:05;;;;;;;;;;;;;;;25.80;47.78;100893.37;1643188;85;22632;-79
2022/08/02 10:06:31;;;;;;;;;;;;;;;25.63;47.82;100887.72;1614083;87;20146;-78
2022/08/02 10:08:57;;;;;;;;;;;;;;;25.52;47.89;100888.69;1674372;84;20191;-79
2022/08/02 10:11:24;;;;;;;;;;;;;;;25.38;47.98;100887.40;1673999;84;20618;-80
2022/08/02 10:13:49;;;;;;;;;;;;;;;25.38;48.06;100890.96;1669609;84;20169;-79
2022/08/02 10:16:18;;;;;;;;;;;;;;;25.31;48.04;100895.79;1672424;84;22585;-79
2022/08/02 10:18:44;;;;;;;;;;;;;;;25.20;48.18;100891.28;1667290;84;20444;-80
2022/08/02 10:21:20;;;;;;;;;;;;;;;25.26;48.32;100889.72;1670877;84;20299;-79
2022/08/02 10:23:47;;;;;;;;;;;;;;;25.34;48.28;100888.45;1667430;85;20447;-78
2022/08/02 10:26:15;;;;;;;;;;;;;;;25.27;48.24;100883.72;1677792;84;20435;-79
2022/08/02 10:28:41;;;;;;;;;;;;;;;25.20;48.24;100885.82;1673001;84;22651;-80
2022/08/02 10:31:07;;;;;;;;;;;;;;;25.12;48.24;100881.63;1671075;84;20202;-80
2022/08/02 10:33:34;;;;;;;;;;;;;;;25.07;48.34;100886.20;1673403;85;20228;-81
2022/08/02 10:36:00;;;;;;;;;;;;;;;25.07;48.35;100880.22;1651965;85;20441;-80
2022/08/02 10:38:25;;;;;;;;;;;;;;;25.02;48.46;100877.41;1669743;84;20183;-81
2022/08/02 10:40:52;;;;;;;;;;;;;;;25.18;48.57;100880.63;1669894;85;22463;-80
2022/08/02 10:43:37;;;;;;;;;;;;;;;25.39;48.48;100879.50;1669616;84;20258;-80
2022/08/02 10:46:32;;;;;;;;;;;;;;;25.46;48.34;100877.39;1663075;85;20178;-80
2022/08/02 10:49:13;;;;;;;;;;;;;;;25.36;48.35;100876.75;1669946;85;20399;-80
2022/08/02 10:52:01;;;;;;;;;;;;;;;25.19;48.23;100873.27;1663442;84;20139;-80
2022/08/02 10:54:32;;;;;;;;;;;;;;;25.31;48.39;100872.05;1673211;84;22351;-80
2022/08/02 10:56:59;;;;;;;;;;;;;;;25.46;48.18;100871.94;1672502;85;20432;-79
2022/08/02 10:59:35;;;;;;;;;;;;;;;25.35;48.20;100875.92;1667745;85;20183;-79
2022/08/02 11:02:03;;;;;;;;;;;;;;;25.61;48.24;100867.50;1670674;84;21175;-78
2022/08/02 11:04:34;;;;;;;;;;;;;;;25.76;48.10;100866.27;1680069;83;20118;-80
2022/08/02 11:07:16;;;;;;;;;;;;;;;25.96;48.01;100862.92;1628961;85;22065;-80
2022/08/02 11:09:43;;;;;;;;;;;;;;;25.99;47.81;100861.03;1656440;85;20215;-79
2022/08/02 11:12:11;;;;;;;;;;;;;;;26.02;47.70;100853.67;1625601;87;20142;-80
2022/08/02 11:14:40;;;;;;;;;;;;;;;25.85;47.48;100858.44;1657937;85;20400;-80
2022/08/02 11:17:10;;;;;;;;;;;;;;;25.73;47.56;100854.50;1645025;85;20166;-80
2022/08/02 11:20:11;;;;;;;;;;;;;;;25.83;47.53;100857.86;1674276;85;21905;-80
2022/08/02 11:22:38;;;;;;;;;;;;;;;25.67;47.40;100858.80;1625644;86;20912;-80
2022/08/02 11:25:29;;;;;;;;;;;;;;;25.42;47.37;100859.87;1633576;86;20404;-80
2022/08/02 11:27:57;;;;;;;;;;;;;;;25.23;47.45;100857.47;1650642;85;20404;-81
2022/08/02 11:30:23;;;;;;;;;;;;;;;24.98;47.55;100854.42;1653710;86;20179;-80
2022/08/02 11:32:49;;;;;;;;;;;;;;;24.88;47.60;100862.48;1665101;85;21906;-80
2022/08/02 11:35:15;;;;;;;;;;;;;;;24.92;47.79;100862.27;1638095;85;20164;-80
2022/08/02 11:37:43;;;;;;;;;;;;;;;25.06;47.82;100859.45;1648549;85;20792;-80
2022/08/02 11:40:14;;;;;;;;;;;;;;;25.24;47.78;100857.77;1638897;85;20395;-81
2022/08/02 11:42:43;;;;;;;;;;;;;;;25.30;47.57;100853.17;1650994;85;20219;-80
2022/08/02 11:45:10;;;;;;;;;;;;;;;25.16;47.50;100859.56;1646691;85;21949;-81
2022/08/02 11:47:46;;;;;;;;;;;;;;;25.05;47.53;100859.15;1638181;87;20943;-81
2022/08/02 11:50:12;;;;;;;;;;;;;;;25.00;47.64;100869.19;1641755;86;20168;-80
2022/08/02 11:52:38;;;;;;;;;;;;;;;25.07;47.73;100855.64;1613677;85;20783;-80
2022/08/02 11:55:08;;;;;;;;;;;;;;;25.30;47.73;100849.91;1639964;85;20730;-81
2022/08/02 11:57:34;;;;;;;;;;;;;;;25.58;47.66;100853.53;1646832;85;22736;-80
2022/08/02 12:00:00;;;;;;;;;;;;;;;25.77;47.42;100844.70;1653491;85;20147;-80
2022/08/02 12:02:27;;;;;;;;;;;;;;;25.70;47.31;100842.72;1648954;84;20283;-80
2022/08/02 12:04:54;;;;;;;;;;;;;;;25.71;47.27;100840.81;1639704;86;21187;-80
2022/08/02 12:07:26;;;;;;;;;;;;;;;25.58;47.20;100850.23;1630942;85;20407;-80
2022/08/02 12:09:52;;;;;;;;;;;;;;;25.40;47.21;100850.58;1630110;85;21820;-80
2022/08/02 12:12:18;;;;;;;;;;;;;;;25.50;47.26;100841.66;1630567;86;20218;-80
2022/08/02 12:14:44;;;;;;;;;;;;;;;25.45;47.11;100841.59;1631042;86;20432;-80
2022/08/02 12:19:54;;;;;;;;;;;;;;;25.40;47.07;100827.91;1629815;85;20327;-80
2022/08/02 12:22:24;;;;;;;;;;;;;;;25.46;47.04;100830.97;1633198;86;21889;-80
2022/08/02 12:24:53;;;;;;;;;;;;;;;25.66;47.00;100833.92;1630924;85;20147;-81
2022/08/02 12:27:32;;;;;;;;;;;;;;;25.90;46.87;100832.50;1629381;85;20153;-81
2022/08/02 12:30:00;;;;;;;;;;;;;;;26.07;46.65;100829.09;1631338;86;20485;-81
2022/08/02 12:32:26;;;;;;;;;;;;;;;26.30;46.40;100827.94;1631449;87;20194;-80
2022/08/02 12:35:02;;;;;;;;;;;;;;;26.47;46.16;100828.59;1623652;86;21747;-80
2022/08/02 12:37:28;;;;;;;;;;;;;;;26.64;45.85;100828.41;1621779;86;20162;-80
2022/08/02 12:39:54;;;;;;;;;;;;;;;26.79;45.56;100820.28;1630803;87;20814;-80
2022/08/02 12:42:20;;;;;;;;;;;;;;;26.94;45.43;100824.50;1633811;87;21105;-81